sensor_id;sensor_type;location;lat;lon;timestamp;P1;durP1;ratioP1;P2;durP2;ratioP2
10890;SDS011;5498;50.928;11.598;2022-12-08T00:01:30;7.03;;;2.40;;
10890;SDS011;5498;50.928;11.598;2022-12-08T00:04:33;5.13;;;2.67;;
10890;SDS011;5498;50.928;11.598;2022-12-08T00:07:55;6.13;;;2.33;;
10890;SDS011;5498;50.928;11.598;2022-12-08T00:11:16;7.03;;;2.70;;
10890;SDS011;5498;50.928;11.598;2022-12-08T00:14:21;2.50;;;1.90;;
10890;SDS011;5498;50.928;11.598;2022-12-08T00:17:26;4.10;;;2.70;;
10890;SDS011;5498;50.928;11.598;2022-12-08T00:20:28;2.93;;;2.23;;
10890;SDS011;5498;50.928;11.598;2022-12-08T00:23:30;2.53;;;2.07;;
10890;SDS011;5498;50.928;11.598;2022-12-08T00:26:33;2.87;;;2.40;;
10890;SDS011;5498;50.928;11.598;2022-12-08T00:29:37;3.87;;;2.40;;
10890;SDS011;5498;50.928;11.598;2022-12-08T00:32:39;5.57;;;2.77;;
10890;SDS011;5498;50.928;11.598;2022-12-08T00:35:41;4.93;;;2.73;;
10890;SDS011;5498;50.928;11.598;2022-12-08T00:38:43;5.90;;;3.13;;
10890;SDS011;5498;50.928;11.598;2022-12-08T00:41:48;3.00;;;2.37;;
10890;SDS011;5498;50.928;11.598;2022-12-08T00:45:08;4.13;;;2.37;;
10890;SDS011;5498;50.928;11.598;2022-12-08T00:48:11;7.70;;;2.90;;
10890;SDS011;5498;50.928;11.598;2022-12-08T00:51:13;5.00;;;2.93;;
10890;SDS011;5498;50.928;11.598;2022-12-08T00:54:16;3.93;;;2.40;;
10890;SDS011;5498;50.928;11.598;2022-12-08T00:57:21;6.63;;;2.80;;
10890;SDS011;5498;50.928;11.598;2022-12-08T01:00:23;4.23;;;2.63;;
10890;SDS011;5498;50.928;11.598;2022-12-08T01:03:25;4.73;;;2.90;;
10890;SDS011;5498;50.928;11.598;2022-12-08T01:06:27;5.17;;;3.37;;
10890;SDS011;5498;50.928;11.598;2022-12-08T01:09:29;5.27;;;3.43;;
10890;SDS011;5498;50.928;11.598;2022-12-08T01:12:33;6.70;;;3.33;;
10890;SDS011;5498;50.928;11.598;2022-12-08T01:15:35;3.77;;;2.80;;
10890;SDS011;5498;50.928;11.598;2022-12-08T01:18:37;5.53;;;2.60;;
10890;SDS011;5498;50.928;11.598;2022-12-08T01:21:40;8.20;;;3.40;;
10890;SDS011;5498;50.928;11.598;2022-12-08T01:24:43;7.17;;;3.20;;
10890;SDS011;5498;50.928;11.598;2022-12-08T01:27:46;4.10;;;2.67;;
10890;SDS011;5498;50.928;11.598;2022-12-08T01:30:48;5.40;;;3.27;;
10890;SDS011;5498;50.928;11.598;2022-12-08T01:33:50;4.53;;;2.87;;
10890;SDS011;5498;50.928;11.598;2022-12-08T01:36:56;5.93;;;2.63;;
10890;SDS011;5498;50.928;11.598;2022-12-08T01:39:58;5.20;;;2.83;;
10890;SDS011;5498;50.928;11.598;2022-12-08T01:43:01;4.47;;;2.53;;
10890;SDS011;5498;50.928;11.598;2022-12-08T01:46:03;4.17;;;2.70;;
10890;SDS011;5498;50.928;11.598;2022-12-08T01:49:07;3.13;;;2.50;;
10890;SDS011;5498;50.928;11.598;2022-12-08T01:52:15;4.47;;;3.00;;
10890;SDS011;5498;50.928;11.598;2022-12-08T01:55:24;4.20;;;2.17;;
10890;SDS011;5498;50.928;11.598;2022-12-08T01:58:35;4.73;;;2.57;;
10890;SDS011;5498;50.928;11.598;2022-12-08T02:01:41;4.77;;;2.70;;
10890;SDS011;5498;50.928;11.598;2022-12-08T02:04:43;3.67;;;2.60;;
10890;SDS011;5498;50.928;11.598;2022-12-08T02:07:45;2.70;;;2.07;;
10890;SDS011;5498;50.928;11.598;2022-12-08T02:10:50;3.83;;;2.13;;
10890;SDS011;5498;50.928;11.598;2022-12-08T02:13:54;3.63;;;2.50;;
10890;SDS011;5498;50.928;11.598;2022-12-08T02:16:59;4.37;;;2.80;;
10890;SDS011;5498;50.928;11.598;2022-12-08T02:20:21;8.63;;;2.30;;
10890;SDS011;5498;50.928;11.598;2022-12-08T02:23:40;6.10;;;2.50;;
10890;SDS011;5498;50.928;11.598;2022-12-08T02:27:12;3.87;;;2.20;;
10890;SDS011;5498;50.928;11.598;2022-12-08T02:30:32;5.13;;;2.57;;
10890;SDS011;5498;50.928;11.598;2022-12-08T02:33:51;4.43;;;2.50;;
10890;SDS011;5498;50.928;11.598;2022-12-08T02:37:10;3.03;;;2.17;;
10890;SDS011;5498;50.928;11.598;2022-12-08T02:40:21;3.27;;;2.33;;
10890;SDS011;5498;50.928;11.598;2022-12-08T02:43:31;3.10;;;2.13;;
10890;SDS011;5498;50.928;11.598;2022-12-08T02:46:42;6.00;;;2.23;;
10890;SDS011;5498;50.928;11.598;2022-12-08T02:49:52;5.07;;;2.63;;
10890;SDS011;5498;50.928;11.598;2022-12-08T02:52:55;3.00;;;2.40;;
10890;SDS011;5498;50.928;11.598;2022-12-08T02:55:59;5.27;;;3.13;;
10890;SDS011;5498;50.928;11.598;2022-12-08T02:59:10;3.90;;;2.90;;
10890;SDS011;5498;50.928;11.598;2022-12-08T03:02:33;2.63;;;2.17;;
10890;SDS011;5498;50.928;11.598;2022-12-08T03:05:53;5.70;;;2.83;;
10890;SDS011;5498;50.928;11.598;2022-12-08T03:09:06;3.37;;;2.53;;
10890;SDS011;5498;50.928;11.598;2022-12-08T03:12:15;3.73;;;2.03;;
10890;SDS011;5498;50.928;11.598;2022-12-08T03:15:21;2.17;;;1.93;;
10890;SDS011;5498;50.928;11.598;2022-12-08T03:18:25;5.33;;;1.80;;
10890;SDS011;5498;50.928;11.598;2022-12-08T03:21:33;2.57;;;2.23;;
10890;SDS011;5498;50.928;11.598;2022-12-08T03:24:38;4.53;;;2.20;;
10890;SDS011;5498;50.928;11.598;2022-12-08T03:27:43;6.00;;;2.90;;
10890;SDS011;5498;50.928;11.598;2022-12-08T03:30:46;2.43;;;2.10;;
10890;SDS011;5498;50.928;11.598;2022-12-08T03:33:52;3.70;;;2.50;;
10890;SDS011;5498;50.928;11.598;2022-12-08T03:37:00;4.03;;;2.20;;
10890;SDS011;5498;50.928;11.598;2022-12-08T03:40:02;3.40;;;2.63;;
10890;SDS011;5498;50.928;11.598;2022-12-08T03:43:08;2.97;;;2.43;;
10890;SDS011;5498;50.928;11.598;2022-12-08T03:46:10;3.77;;;2.83;;
10890;SDS011;5498;50.928;11.598;2022-12-08T03:49:12;4.10;;;2.70;;
10890;SDS011;5498;50.928;11.598;2022-12-08T03:52:16;3.40;;;2.40;;
10890;SDS011;5498;50.928;11.598;2022-12-08T03:55:18;3.40;;;2.40;;
10890;SDS011;5498;50.928;11.598;2022-12-08T03:58:22;2.70;;;2.47;;
10890;SDS011;5498;50.928;11.598;2022-12-08T04:01:25;2.40;;;1.90;;
10890;SDS011;5498;50.928;11.598;2022-12-08T04:04:27;3.00;;;2.40;;
10890;SDS011;5498;50.928;11.598;2022-12-08T04:07:31;2.53;;;2.23;;
10890;SDS011;5498;50.928;11.598;2022-12-08T04:10:33;3.67;;;2.27;;
10890;SDS011;5498;50.928;11.598;2022-12-08T04:13:35;2.23;;;2.03;;
10890;SDS011;5498;50.928;11.598;2022-12-08T04:16:39;3.10;;;2.43;;
10890;SDS011;5498;50.928;11.598;2022-12-08T04:19:41;3.70;;;2.30;;
10890;SDS011;5498;50.928;11.598;2022-12-08T04:22:44;5.50;;;2.47;;
10890;SDS011;5498;50.928;11.598;2022-12-08T04:25:47;3.30;;;2.40;;
10890;SDS011;5498;50.928;11.598;2022-12-08T04:28:49;4.17;;;2.50;;
10890;SDS011;5498;50.928;11.598;2022-12-08T04:31:51;2.37;;;2.10;;
10890;SDS011;5498;50.928;11.598;2022-12-08T04:34:53;6.33;;;2.63;;
10890;SDS011;5498;50.928;11.598;2022-12-08T04:37:56;4.67;;;2.80;;
10890;SDS011;5498;50.928;11.598;2022-12-08T04:40:58;3.07;;;2.10;;
10890;SDS011;5498;50.928;11.598;2022-12-08T04:44:00;6.73;;;2.80;;
10890;SDS011;5498;50.928;11.598;2022-12-08T04:47:03;3.60;;;2.73;;
10890;SDS011;5498;50.928;11.598;2022-12-08T04:50:05;4.73;;;2.93;;
10890;SDS011;5498;50.928;11.598;2022-12-08T04:53:10;5.03;;;2.93;;
10890;SDS011;5498;50.928;11.598;2022-12-08T04:56:13;4.13;;;2.80;;
10890;SDS011;5498;50.928;11.598;2022-12-08T04:59:16;2.13;;;1.90;;
10890;SDS011;5498;50.928;11.598;2022-12-08T05:02:19;3.60;;;2.60;;
10890;SDS011;5498;50.928;11.598;2022-12-08T05:05:21;4.63;;;2.80;;
10890;SDS011;5498;50.928;11.598;2022-12-08T05:08:24;6.00;;;3.10;;
10890;SDS011;5498;50.928;11.598;2022-12-08T05:11:26;3.27;;;2.77;;
10890;SDS011;5498;50.928;11.598;2022-12-08T05:14:28;4.83;;;3.20;;
10890;SDS011;5498;50.928;11.598;2022-12-08T05:17:31;7.67;;;2.90;;
10890;SDS011;5498;50.928;11.598;2022-12-08T05:20:33;3.83;;;2.87;;
10890;SDS011;5498;50.928;11.598;2022-12-08T05:23:37;4.40;;;2.90;;
10890;SDS011;5498;50.928;11.598;2022-12-08T05:26:39;3.57;;;3.03;;
10890;SDS011;5498;50.928;11.598;2022-12-08T05:29:41;4.00;;;3.17;;
10890;SDS011;5498;50.928;11.598;2022-12-08T05:32:43;5.57;;;2.70;;
10890;SDS011;5498;50.928;11.598;2022-12-08T05:35:45;3.57;;;2.53;;
10890;SDS011;5498;50.928;11.598;2022-12-08T05:38:48;5.00;;;3.07;;
10890;SDS011;5498;50.928;11.598;2022-12-08T05:41:50;5.60;;;3.43;;
10890;SDS011;5498;50.928;11.598;2022-12-08T05:44:52;4.60;;;3.17;;
10890;SDS011;5498;50.928;11.598;2022-12-08T05:47:55;4.90;;;3.33;;
10890;SDS011;5498;50.928;11.598;2022-12-08T05:50:57;4.30;;;3.00;;
10890;SDS011;5498;50.928;11.598;2022-12-08T05:54:00;4.27;;;3.57;;
10890;SDS011;5498;50.928;11.598;2022-12-08T05:57:02;24.13;;;12.47;;
10890;SDS011;5498;50.928;11.598;2022-12-08T06:00:05;12.67;;;7.33;;
10890;SDS011;5498;50.928;11.598;2022-12-08T06:03:09;6.13;;;3.37;;
10890;SDS011;5498;50.928;11.598;2022-12-08T06:06:12;6.40;;;3.37;;
10890;SDS011;5498;50.928;11.598;2022-12-08T06:09:15;5.47;;;2.93;;
10890;SDS011;5498;50.928;11.598;2022-12-08T06:12:17;4.73;;;2.87;;
10890;SDS011;5498;50.928;11.598;2022-12-08T06:15:21;3.93;;;3.00;;
10890;SDS011;5498;50.928;11.598;2022-12-08T06:18:23;5.37;;;2.67;;
10890;SDS011;5498;50.928;11.598;2022-12-08T06:21:25;5.93;;;3.13;;
10890;SDS011;5498;50.928;11.598;2022-12-08T06:24:28;6.20;;;3.87;;
10890;SDS011;5498;50.928;11.598;2022-12-08T06:27:30;4.10;;;2.60;;
10890;SDS011;5498;50.928;11.598;2022-12-08T06:30:33;3.20;;;2.90;;
10890;SDS011;5498;50.928;11.598;2022-12-08T06:33:35;5.97;;;3.17;;
10890;SDS011;5498;50.928;11.598;2022-12-08T06:36:38;4.73;;;3.27;;
10890;SDS011;5498;50.928;11.598;2022-12-08T06:39:42;4.90;;;2.90;;
10890;SDS011;5498;50.928;11.598;2022-12-08T06:42:44;4.67;;;3.10;;
10890;SDS011;5498;50.928;11.598;2022-12-08T06:45:46;5.07;;;3.07;;
10890;SDS011;5498;50.928;11.598;2022-12-08T06:48:49;5.63;;;3.07;;
10890;SDS011;5498;50.928;11.598;2022-12-08T06:51:51;5.07;;;3.40;;
10890;SDS011;5498;50.928;11.598;2022-12-08T06:54:55;5.10;;;3.23;;
10890;SDS011;5498;50.928;11.598;2022-12-08T06:57:57;4.60;;;2.73;;
10890;SDS011;5498;50.928;11.598;2022-12-08T07:01:02;5.73;;;3.50;;
10890;SDS011;5498;50.928;11.598;2022-12-08T07:04:06;10.87;;;3.20;;
10890;SDS011;5498;50.928;11.598;2022-12-08T07:07:08;4.47;;;2.90;;
10890;SDS011;5498;50.928;11.598;2022-12-08T07:10:11;7.83;;;3.13;;
10890;SDS011;5498;50.928;11.598;2022-12-08T07:13:13;6.57;;;3.47;;
10890;SDS011;5498;50.928;11.598;2022-12-08T07:16:15;7.80;;;3.77;;
10890;SDS011;5498;50.928;11.598;2022-12-08T07:19:17;6.47;;;3.13;;
10890;SDS011;5498;50.928;11.598;2022-12-08T07:22:20;5.80;;;4.07;;
10890;SDS011;5498;50.928;11.598;2022-12-08T07:25:23;6.33;;;3.67;;
10890;SDS011;5498;50.928;11.598;2022-12-08T07:28:25;7.10;;;3.63;;
10890;SDS011;5498;50.928;11.598;2022-12-08T07:31:27;7.03;;;3.67;;
10890;SDS011;5498;50.928;11.598;2022-12-08T07:34:30;3.47;;;2.60;;
10890;SDS011;5498;50.928;11.598;2022-12-08T07:37:32;8.63;;;3.27;;
10890;SDS011;5498;50.928;11.598;2022-12-08T07:40:36;4.93;;;3.27;;
10890;SDS011;5498;50.928;11.598;2022-12-08T07:43:39;4.30;;;2.87;;
10890;SDS011;5498;50.928;11.598;2022-12-08T07:46:41;6.20;;;2.63;;
10890;SDS011;5498;50.928;11.598;2022-12-08T07:49:43;5.00;;;3.10;;
10890;SDS011;5498;50.928;11.598;2022-12-08T07:52:48;4.97;;;3.63;;
10890;SDS011;5498;50.928;11.598;2022-12-08T07:55:52;5.53;;;3.40;;
10890;SDS011;5498;50.928;11.598;2022-12-08T07:58:54;6.07;;;3.40;;
10890;SDS011;5498;50.928;11.598;2022-12-08T08:01:56;6.07;;;3.37;;
10890;SDS011;5498;50.928;11.598;2022-12-08T08:04:58;8.10;;;3.83;;
10890;SDS011;5498;50.928;11.598;2022-12-08T08:08:00;5.63;;;3.87;;
10890;SDS011;5498;50.928;11.598;2022-12-08T08:11:06;4.47;;;3.70;;
10890;SDS011;5498;50.928;11.598;2022-12-08T08:14:08;7.17;;;3.33;;
10890;SDS011;5498;50.928;11.598;2022-12-08T08:17:10;5.23;;;3.67;;
10890;SDS011;5498;50.928;11.598;2022-12-08T08:20:15;5.93;;;3.80;;
10890;SDS011;5498;50.928;11.598;2022-12-08T08:23:19;5.50;;;3.53;;
10890;SDS011;5498;50.928;11.598;2022-12-08T08:26:23;5.00;;;3.70;;
10890;SDS011;5498;50.928;11.598;2022-12-08T08:29:25;6.60;;;3.63;;
10890;SDS011;5498;50.928;11.598;2022-12-08T08:32:27;5.10;;;3.43;;
10890;SDS011;5498;50.928;11.598;2022-12-08T08:35:32;7.17;;;3.47;;
10890;SDS011;5498;50.928;11.598;2022-12-08T08:38:35;8.27;;;3.23;;
10890;SDS011;5498;50.928;11.598;2022-12-08T08:41:40;4.57;;;3.30;;
10890;SDS011;5498;50.928;11.598;2022-12-08T08:44:42;5.43;;;3.60;;
10890;SDS011;5498;50.928;11.598;2022-12-08T08:47:44;8.53;;;3.23;;
10890;SDS011;5498;50.928;11.598;2022-12-08T08:50:46;6.30;;;3.53;;
10890;SDS011;5498;50.928;11.598;2022-12-08T08:53:48;5.20;;;3.00;;
10890;SDS011;5498;50.928;11.598;2022-12-08T08:56:52;5.17;;;3.93;;
10890;SDS011;5498;50.928;11.598;2022-12-08T08:59:54;5.30;;;3.20;;
10890;SDS011;5498;50.928;11.598;2022-12-08T09:02:56;4.47;;;3.33;;
10890;SDS011;5498;50.928;11.598;2022-12-08T09:05:58;5.07;;;3.97;;
10890;SDS011;5498;50.928;11.598;2022-12-08T09:09:00;7.43;;;3.20;;
10890;SDS011;5498;50.928;11.598;2022-12-08T09:12:04;6.53;;;3.03;;
10890;SDS011;5498;50.928;11.598;2022-12-08T09:15:06;5.43;;;3.43;;
10890;SDS011;5498;50.928;11.598;2022-12-08T09:18:09;4.00;;;3.33;;
10890;SDS011;5498;50.928;11.598;2022-12-08T09:21:12;6.40;;;3.17;;
10890;SDS011;5498;50.928;11.598;2022-12-08T09:24:19;4.87;;;3.60;;
10890;SDS011;5498;50.928;11.598;2022-12-08T09:27:23;5.27;;;3.57;;
10890;SDS011;5498;50.928;11.598;2022-12-08T09:30:25;4.50;;;3.53;;
10890;SDS011;5498;50.928;11.598;2022-12-08T09:33:27;5.63;;;3.97;;
10890;SDS011;5498;50.928;11.598;2022-12-08T09:36:29;5.27;;;3.27;;
10890;SDS011;5498;50.928;11.598;2022-12-08T09:39:32;7.07;;;3.73;;
10890;SDS011;5498;50.928;11.598;2022-12-08T09:42:37;5.83;;;3.70;;
10890;SDS011;5498;50.928;11.598;2022-12-08T09:45:46;5.13;;;3.63;;
10890;SDS011;5498;50.928;11.598;2022-12-08T09:48:51;5.23;;;3.73;;
10890;SDS011;5498;50.928;11.598;2022-12-08T09:51:57;5.90;;;3.03;;
10890;SDS011;5498;50.928;11.598;2022-12-08T09:55:02;4.03;;;2.87;;
10890;SDS011;5498;50.928;11.598;2022-12-08T09:58:18;4.23;;;3.43;;
10890;SDS011;5498;50.928;11.598;2022-12-08T10:01:28;7.97;;;4.03;;
10890;SDS011;5498;50.928;11.598;2022-12-08T10:04:34;10.33;;;6.40;;
10890;SDS011;5498;50.928;11.598;2022-12-08T10:07:40;5.57;;;3.73;;
10890;SDS011;5498;50.928;11.598;2022-12-08T10:10:49;5.47;;;3.53;;
10890;SDS011;5498;50.928;11.598;2022-12-08T10:14:01;6.23;;;3.80;;
10890;SDS011;5498;50.928;11.598;2022-12-08T10:17:19;8.23;;;3.63;;
10890;SDS011;5498;50.928;11.598;2022-12-08T10:20:28;7.20;;;3.40;;
10890;SDS011;5498;50.928;11.598;2022-12-08T10:23:38;4.10;;;3.00;;
10890;SDS011;5498;50.928;11.598;2022-12-08T10:26:41;5.07;;;3.67;;
10890;SDS011;5498;50.928;11.598;2022-12-08T10:29:45;4.23;;;2.83;;
10890;SDS011;5498;50.928;11.598;2022-12-08T10:32:47;7.33;;;4.10;;
10890;SDS011;5498;50.928;11.598;2022-12-08T10:35:52;4.87;;;3.23;;
10890;SDS011;5498;50.928;11.598;2022-12-08T10:38:57;5.77;;;3.70;;
10890;SDS011;5498;50.928;11.598;2022-12-08T10:42:00;7.07;;;3.87;;
10890;SDS011;5498;50.928;11.598;2022-12-08T10:45:16;6.47;;;3.53;;
10890;SDS011;5498;50.928;11.598;2022-12-08T10:48:25;6.87;;;3.23;;
10890;SDS011;5498;50.928;11.598;2022-12-08T10:51:35;4.30;;;3.17;;
10890;SDS011;5498;50.928;11.598;2022-12-08T10:54:41;5.73;;;4.00;;
10890;SDS011;5498;50.928;11.598;2022-12-08T10:57:43;4.53;;;2.97;;
10890;SDS011;5498;50.928;11.598;2022-12-08T11:00:46;3.90;;;2.57;;
10890;SDS011;5498;50.928;11.598;2022-12-08T11:03:51;4.20;;;2.43;;
10890;SDS011;5498;50.928;11.598;2022-12-08T11:06:57;3.30;;;2.63;;
10890;SDS011;5498;50.928;11.598;2022-12-08T11:10:00;4.10;;;2.43;;
10890;SDS011;5498;50.928;11.598;2022-12-08T11:13:03;4.53;;;2.30;;
10890;SDS011;5498;50.928;11.598;2022-12-08T11:16:09;3.03;;;2.40;;
10890;SDS011;5498;50.928;11.598;2022-12-08T11:19:15;4.37;;;2.73;;
10890;SDS011;5498;50.928;11.598;2022-12-08T11:22:20;3.47;;;2.50;;
10890;SDS011;5498;50.928;11.598;2022-12-08T11:25:25;2.60;;;2.10;;
10890;SDS011;5498;50.928;11.598;2022-12-08T11:28:28;3.43;;;2.60;;
10890;SDS011;5498;50.928;11.598;2022-12-08T11:31:32;3.80;;;2.27;;
10890;SDS011;5498;50.928;11.598;2022-12-08T11:34:40;16.73;;;2.63;;
10890;SDS011;5498;50.928;11.598;2022-12-08T11:37:46;2.73;;;2.43;;
10890;SDS011;5498;50.928;11.598;2022-12-08T11:40:49;4.40;;;2.23;;
10890;SDS011;5498;50.928;11.598;2022-12-08T11:43:57;6.17;;;2.43;;
10890;SDS011;5498;50.928;11.598;2022-12-08T11:47:07;4.73;;;2.23;;
10890;SDS011;5498;50.928;11.598;2022-12-08T11:50:18;3.03;;;2.30;;
10890;SDS011;5498;50.928;11.598;2022-12-08T11:53:26;6.67;;;2.20;;
10890;SDS011;5498;50.928;11.598;2022-12-08T11:56:35;2.73;;;1.97;;
10890;SDS011;5498;50.928;11.598;2022-12-08T11:59:44;4.57;;;1.97;;
10890;SDS011;5498;50.928;11.598;2022-12-08T12:02:51;1.97;;;1.63;;
10890;SDS011;5498;50.928;11.598;2022-12-08T12:06:07;2.93;;;2.00;;
10890;SDS011;5498;50.928;11.598;2022-12-08T12:09:45;3.10;;;2.40;;
10890;SDS011;5498;50.928;11.598;2022-12-08T12:13:08;3.57;;;2.07;;
10890;SDS011;5498;50.928;11.598;2022-12-08T12:16:31;2.60;;;2.10;;
10890;SDS011;5498;50.928;11.598;2022-12-08T12:19:53;2.90;;;2.10;;
10890;SDS011;5498;50.928;11.598;2022-12-08T12:23:00;2.30;;;1.73;;
10890;SDS011;5498;50.928;11.598;2022-12-08T12:26:07;2.80;;;1.80;;
10890;SDS011;5498;50.928;11.598;2022-12-08T12:29:19;4.27;;;1.80;;
10890;SDS011;5498;50.928;11.598;2022-12-08T12:32:24;3.30;;;2.37;;
10890;SDS011;5498;50.928;11.598;2022-12-08T12:35:31;3.17;;;2.27;;
10890;SDS011;5498;50.928;11.598;2022-12-08T12:38:36;3.07;;;1.83;;
10890;SDS011;5498;50.928;11.598;2022-12-08T12:42:04;6.83;;;1.90;;
10890;SDS011;5498;50.928;11.598;2022-12-08T12:45:10;5.10;;;2.17;;
10890;SDS011;5498;50.928;11.598;2022-12-08T12:48:26;1.70;;;1.60;;
10890;SDS011;5498;50.928;11.598;2022-12-08T12:51:41;1.57;;;1.47;;
10890;SDS011;5498;50.928;11.598;2022-12-08T12:58:55;2.77;;;1.73;;
10890;SDS011;5498;50.928;11.598;2022-12-08T13:01:58;5.10;;;1.50;;
10890;SDS011;5498;50.928;11.598;2022-12-08T13:05:07;2.67;;;1.77;;
10890;SDS011;5498;50.928;11.598;2022-12-08T13:08:20;3.07;;;2.07;;
10890;SDS011;5498;50.928;11.598;2022-12-08T13:11:24;2.00;;;1.70;;
10890;SDS011;5498;50.928;11.598;2022-12-08T13:14:31;2.40;;;1.67;;
10890;SDS011;5498;50.928;11.598;2022-12-08T13:17:36;2.33;;;1.70;;
10890;SDS011;5498;50.928;11.598;2022-12-08T13:20:45;4.60;;;2.07;;
10890;SDS011;5498;50.928;11.598;2022-12-08T13:24:11;2.10;;;1.83;;
10890;SDS011;5498;50.928;11.598;2022-12-08T13:27:30;3.17;;;1.77;;
10890;SDS011;5498;50.928;11.598;2022-12-08T13:30:42;2.70;;;1.60;;
10890;SDS011;5498;50.928;11.598;2022-12-08T13:33:45;2.10;;;1.90;;
10890;SDS011;5498;50.928;11.598;2022-12-08T13:36:56;3.20;;;1.90;;
10890;SDS011;5498;50.928;11.598;2022-12-08T13:40:13;2.83;;;1.30;;
10890;SDS011;5498;50.928;11.598;2022-12-08T13:43:21;4.70;;;2.00;;
10890;SDS011;5498;50.928;11.598;2022-12-08T13:46:35;2.63;;;1.90;;
10890;SDS011;5498;50.928;11.598;2022-12-08T13:49:43;3.33;;;1.90;;
10890;SDS011;5498;50.928;11.598;2022-12-08T13:52:57;3.03;;;2.10;;
10890;SDS011;5498;50.928;11.598;2022-12-08T13:56:04;2.30;;;1.90;;
10890;SDS011;5498;50.928;11.598;2022-12-08T13:59:08;3.23;;;1.80;;
10890;SDS011;5498;50.928;11.598;2022-12-08T14:02:29;2.53;;;1.70;;
10890;SDS011;5498;50.928;11.598;2022-12-08T14:05:37;3.20;;;1.90;;
10890;SDS011;5498;50.928;11.598;2022-12-08T14:08:42;2.13;;;1.80;;
10890;SDS011;5498;50.928;11.598;2022-12-08T14:11:53;3.33;;;1.90;;
10890;SDS011;5498;50.928;11.598;2022-12-08T14:14:58;2.07;;;1.43;;
10890;SDS011;5498;50.928;11.598;2022-12-08T14:18:03;3.77;;;1.90;;
10890;SDS011;5498;50.928;11.598;2022-12-08T14:21:20;2.20;;;2.00;;
10890;SDS011;5498;50.928;11.598;2022-12-08T14:24:22;1.97;;;1.77;;
10890;SDS011;5498;50.928;11.598;2022-12-08T14:27:30;1.87;;;1.60;;
10890;SDS011;5498;50.928;11.598;2022-12-08T14:30:35;1.80;;;1.60;;
10890;SDS011;5498;50.928;11.598;2022-12-08T14:33:39;2.30;;;1.60;;
10890;SDS011;5498;50.928;11.598;2022-12-08T14:36:42;4.50;;;2.83;;
10890;SDS011;5498;50.928;11.598;2022-12-08T14:39:44;4.10;;;1.60;;
10890;SDS011;5498;50.928;11.598;2022-12-08T14:42:49;3.30;;;2.13;;
10890;SDS011;5498;50.928;11.598;2022-12-08T14:45:56;2.30;;;1.70;;
10890;SDS011;5498;50.928;11.598;2022-12-08T14:49:02;3.23;;;2.10;;
10890;SDS011;5498;50.928;11.598;2022-12-08T14:52:07;3.30;;;1.50;;
10890;SDS011;5498;50.928;11.598;2022-12-08T14:55:11;2.10;;;1.70;;
10890;SDS011;5498;50.928;11.598;2022-12-08T14:58:17;3.77;;;2.57;;
10890;SDS011;5498;50.928;11.598;2022-12-08T15:01:24;4.67;;;2.43;;
10890;SDS011;5498;50.928;11.598;2022-12-08T15:04:26;3.30;;;2.20;;
10890;SDS011;5498;50.928;11.598;2022-12-08T15:07:30;6.27;;;3.53;;
10890;SDS011;5498;50.928;11.598;2022-12-08T15:10:36;3.10;;;1.60;;
10890;SDS011;5498;50.928;11.598;2022-12-08T15:13:45;2.40;;;1.60;;
10890;SDS011;5498;50.928;11.598;2022-12-08T15:16:50;4.00;;;1.77;;
10890;SDS011;5498;50.928;11.598;2022-12-08T15:19:54;1.97;;;1.53;;
10890;SDS011;5498;50.928;11.598;2022-12-08T15:22:57;3.30;;;2.20;;
10890;SDS011;5498;50.928;11.598;2022-12-08T15:25:59;1.80;;;1.60;;
10890;SDS011;5498;50.928;11.598;2022-12-08T15:29:15;2.53;;;1.50;;
10890;SDS011;5498;50.928;11.598;2022-12-08T15:32:21;2.23;;;2.00;;
10890;SDS011;5498;50.928;11.598;2022-12-08T15:35:24;1.87;;;1.60;;
10890;SDS011;5498;50.928;11.598;2022-12-08T15:38:27;4.47;;;2.07;;
10890;SDS011;5498;50.928;11.598;2022-12-08T15:41:30;2.33;;;1.73;;
10890;SDS011;5498;50.928;11.598;2022-12-08T15:44:33;3.10;;;1.77;;
10890;SDS011;5498;50.928;11.598;2022-12-08T15:47:35;2.80;;;1.63;;
10890;SDS011;5498;50.928;11.598;2022-12-08T15:50:37;2.93;;;1.73;;
10890;SDS011;5498;50.928;11.598;2022-12-08T15:53:39;1.87;;;1.40;;
10890;SDS011;5498;50.928;11.598;2022-12-08T15:56:42;4.30;;;3.00;;
10890;SDS011;5498;50.928;11.598;2022-12-08T15:59:48;4.97;;;3.03;;
10890;SDS011;5498;50.928;11.598;2022-12-08T16:02:52;5.03;;;2.87;;
10890;SDS011;5498;50.928;11.598;2022-12-08T16:05:54;2.00;;;1.80;;
10890;SDS011;5498;50.928;11.598;2022-12-08T16:08:59;4.23;;;1.73;;
10890;SDS011;5498;50.928;11.598;2022-12-08T16:12:01;3.73;;;1.90;;
10890;SDS011;5498;50.928;11.598;2022-12-08T16:15:23;2.57;;;1.77;;
10890;SDS011;5498;50.928;11.598;2022-12-08T16:18:26;3.40;;;2.00;;
10890;SDS011;5498;50.928;11.598;2022-12-08T16:21:30;4.23;;;3.33;;
10890;SDS011;5498;50.928;11.598;2022-12-08T16:24:32;2.43;;;1.93;;
10890;SDS011;5498;50.928;11.598;2022-12-08T16:27:35;4.37;;;2.37;;
10890;SDS011;5498;50.928;11.598;2022-12-08T16:30:40;2.27;;;1.77;;
10890;SDS011;5498;50.928;11.598;2022-12-08T16:33:42;2.47;;;1.50;;
10890;SDS011;5498;50.928;11.598;2022-12-08T16:36:44;3.10;;;1.80;;
10890;SDS011;5498;50.928;11.598;2022-12-08T16:39:46;2.77;;;2.43;;
10890;SDS011;5498;50.928;11.598;2022-12-08T16:42:49;2.77;;;1.77;;
10890;SDS011;5498;50.928;11.598;2022-12-08T16:45:52;3.60;;;2.10;;
10890;SDS011;5498;50.928;11.598;2022-12-08T16:48:56;2.20;;;2.00;;
10890;SDS011;5498;50.928;11.598;2022-12-08T16:52:00;2.93;;;2.30;;
10890;SDS011;5498;50.928;11.598;2022-12-08T16:55:05;5.23;;;3.17;;
10890;SDS011;5498;50.928;11.598;2022-12-08T16:58:09;5.00;;;3.13;;
10890;SDS011;5498;50.928;11.598;2022-12-08T17:01:13;3.57;;;2.13;;
10890;SDS011;5498;50.928;11.598;2022-12-08T17:04:18;5.63;;;2.57;;
10890;SDS011;5498;50.928;11.598;2022-12-08T17:07:20;3.93;;;2.83;;
10890;SDS011;5498;50.928;11.598;2022-12-08T17:10:24;4.67;;;2.90;;
10890;SDS011;5498;50.928;11.598;2022-12-08T17:13:28;10.87;;;3.13;;
10890;SDS011;5498;50.928;11.598;2022-12-08T17:16:31;7.60;;;3.87;;
10890;SDS011;5498;50.928;11.598;2022-12-08T17:19:33;7.73;;;3.93;;
10890;SDS011;5498;50.928;11.598;2022-12-08T17:22:35;6.63;;;4.10;;
10890;SDS011;5498;50.928;11.598;2022-12-08T17:25:38;7.37;;;4.13;;
10890;SDS011;5498;50.928;11.598;2022-12-08T17:28:40;7.13;;;3.80;;
10890;SDS011;5498;50.928;11.598;2022-12-08T17:31:44;5.37;;;3.63;;
10890;SDS011;5498;50.928;11.598;2022-12-08T17:34:46;6.87;;;3.60;;
10890;SDS011;5498;50.928;11.598;2022-12-08T17:37:48;5.53;;;3.27;;
10890;SDS011;5498;50.928;11.598;2022-12-08T17:40:50;6.27;;;3.47;;
10890;SDS011;5498;50.928;11.598;2022-12-08T17:43:52;3.77;;;2.87;;
10890;SDS011;5498;50.928;11.598;2022-12-08T17:46:56;3.80;;;2.90;;
10890;SDS011;5498;50.928;11.598;2022-12-08T17:49:58;5.83;;;3.33;;
10890;SDS011;5498;50.928;11.598;2022-12-08T17:53:00;3.57;;;2.83;;
10890;SDS011;5498;50.928;11.598;2022-12-08T17:56:03;4.90;;;2.90;;
10890;SDS011;5498;50.928;11.598;2022-12-08T17:59:07;6.40;;;3.10;;
10890;SDS011;5498;50.928;11.598;2022-12-08T18:02:11;4.83;;;3.23;;
10890;SDS011;5498;50.928;11.598;2022-12-08T18:05:13;6.47;;;3.77;;
10890;SDS011;5498;50.928;11.598;2022-12-08T18:08:15;4.10;;;3.27;;
10890;SDS011;5498;50.928;11.598;2022-12-08T18:11:18;9.60;;;3.87;;
10890;SDS011;5498;50.928;11.598;2022-12-08T18:14:20;6.07;;;3.30;;
10890;SDS011;5498;50.928;11.598;2022-12-08T18:17:24;3.50;;;3.13;;
10890;SDS011;5498;50.928;11.598;2022-12-08T18:20:26;6.60;;;4.27;;
10890;SDS011;5498;50.928;11.598;2022-12-08T18:23:28;4.87;;;3.63;;
10890;SDS011;5498;50.928;11.598;2022-12-08T18:26:30;4.40;;;3.20;;
10890;SDS011;5498;50.928;11.598;2022-12-08T18:29:33;4.63;;;3.13;;
10890;SDS011;5498;50.928;11.598;2022-12-08T18:32:36;4.93;;;3.07;;
10890;SDS011;5498;50.928;11.598;2022-12-08T18:35:38;4.33;;;3.57;;
10890;SDS011;5498;50.928;11.598;2022-12-08T18:38:40;4.80;;;3.43;;
10890;SDS011;5498;50.928;11.598;2022-12-08T18:41:43;5.53;;;3.60;;